createdAt,value
2022-12-09T00:01:24.215Z,3.30
2022-12-09T00:03:53.011Z,3.30
2022-12-09T00:06:23.451Z,3.30
2022-12-09T00:08:52.820Z,3.30
2022-12-09T00:11:22.877Z,3.30
2022-12-09T00:13:52.343Z,3.30
2022-12-09T00:16:23.329Z,3.40
2022-12-09T00:18:52.949Z,3.30
2022-12-09T00:21:24.184Z,3.30
2022-12-09T00:23:54.865Z,3.30
2022-12-09T00:26:25.013Z,3.40
2022-12-09T00:28:54.344Z,3.40
2022-12-09T00:31:26.086Z,3.30
2022-12-09T00:33:57.636Z,3.40
2022-12-09T00:36:26.728Z,3.30
2022-12-09T00:38:56.333Z,3.40
2022-12-09T00:41:25.241Z,3.30
2022-12-09T00:43:54.482Z,3.40
2022-12-09T00:46:24.280Z,3.40
2022-12-09T00:48:52.849Z,3.40
2022-12-09T00:51:25.715Z,3.30
2022-12-09T00:53:56.258Z,3.30
2022-12-09T00:56:28.276Z,3.40
2022-12-09T00:58:58.040Z,3.30
2022-12-09T01:01:29.930Z,3.40
2022-12-09T01:03:59.578Z,3.40
2022-12-09T01:06:28.715Z,3.40
2022-12-09T01:08:57.481Z,3.40
2022-12-09T01:11:28.509Z,3.40
2022-12-09T01:14:01.332Z,3.30
2022-12-09T01:16:33.639Z,3.40
2022-12-09T01:19:05.335Z,3.40
2022-12-09T01:21:34.867Z,3.40
2022-12-09T01:24:08.631Z,3.40
2022-12-09T01:26:37.662Z,3.40
2022-12-09T01:29:06.791Z,3.30
2022-12-09T01:31:36.800Z,3.30
2022-12-09T01:34:05.825Z,3.30
2022-12-09T01:36:34.343Z,3.30
2022-12-09T01:39:05.802Z,3.40
2022-12-09T01:41:35.241Z,3.40
2022-12-09T01:44:18.029Z,3.40
2022-12-09T01:46:48.791Z,3.30
2022-12-09T01:49:21.786Z,3.40
2022-12-09T01:51:57.552Z,3.30
2022-12-09T01:54:26.287Z,3.30
2022-12-09T01:56:56.701Z,3.30
2022-12-09T01:59:27.180Z,3.30
2022-12-09T02:02:01.077Z,3.30
2022-12-09T02:04:33.676Z,3.30
2022-12-09T02:07:07.163Z,3.30
2022-12-09T02:09:36.196Z,3.30
2022-12-09T02:12:14.065Z,3.30
2022-12-09T02:14:46.415Z,3.30
2022-12-09T02:17:28.912Z,3.30
2022-12-09T02:20:07.539Z,3.30
2022-12-09T02:22:41.780Z,3.30
2022-12-09T02:25:19.889Z,3.30
2022-12-09T02:27:52.495Z,3.30
2022-12-09T02:30:23.877Z,3.30
2022-12-09T02:33:23.186Z,3.30
2022-12-09T02:36:03.295Z,3.30
2022-12-09T02:38:34.186Z,3.30
2022-12-09T02:41:07.701Z,3.20
2022-12-09T02:43:49.389Z,3.30
2022-12-09T02:46:22.933Z,3.30
2022-12-09T02:48:55.900Z,3.20
2022-12-09T02:51:28.596Z,3.20
2022-12-09T02:54:03.462Z,3.20
2022-12-09T02:56:35.761Z,3.20
2022-12-09T02:59:05.091Z,3.20
2022-12-09T03:01:42.244Z,3.20
2022-12-09T03:04:17.833Z,3.20
2022-12-09T03:06:52.295Z,3.20
2022-12-09T03:09:25.811Z,3.20
2022-12-09T03:11:56.308Z,3.20
2022-12-09T03:14:30.164Z,3.20
2022-12-09T03:17:04.192Z,3.20
2022-12-09T03:19:37.877Z,3.20
2022-12-09T03:22:11.120Z,3.20
2022-12-09T03:24:43.203Z,3.20
2022-12-09T03:27:15.764Z,3.20
2022-12-09T03:29:49.935Z,3.20
2022-12-09T03:32:20.994Z,3.20
2022-12-09T03:34:52.340Z,3.20
2022-12-09T03:37:23.248Z,3.20
2022-12-09T03:39:54.736Z,3.20
2022-12-09T03:42:29.340Z,3.20
2022-12-09T03:45:02.892Z,3.20
2022-12-09T03:47:34.343Z,3.20
2022-12-09T03:50:03.189Z,3.30
2022-12-09T03:52:39.218Z,3.30
2022-12-09T03:55:13.964Z,3.20
2022-12-09T03:57:45.861Z,3.30
2022-12-09T04:00:15.001Z,3.30
2022-12-09T04:02:43.808Z,3.30
2022-12-09T04:05:13.210Z,3.30
2022-12-09T04:07:43.409Z,3.30
2022-12-09T04:10:12.742Z,3.30
2022-12-09T04:12:42.230Z,3.30
2022-12-09T04:15:11.095Z,3.30
2022-12-09T04:17:39.571Z,3.30
2022-12-09T04:20:09.692Z,3.30
2022-12-09T04:22:38.408Z,3.30
2022-12-09T04:25:08.823Z,3.30
2022-12-09T04:27:37.615Z,3.30
2022-12-09T04:30:07.437Z,3.30
2022-12-09T04:32:37.113Z,3.30
2022-12-09T04:35:06.305Z,3.30
2022-12-09T04:37:35.151Z,3.30
2022-12-09T04:40:04.093Z,3.30
2022-12-09T04:42:34.040Z,3.30
2022-12-09T04:45:03.078Z,3.30
2022-12-09T04:47:31.627Z,3.30
2022-12-09T04:50:00.547Z,3.30
2022-12-09T04:52:29.542Z,3.30
2022-12-09T04:54:58.604Z,3.30
2022-12-09T04:57:27.224Z,3.30
2022-12-09T04:59:57.422Z,3.30
2022-12-09T05:02:26.051Z,3.30
2022-12-09T05:04:54.966Z,3.30
2022-12-09T05:07:25.405Z,3.30
2022-12-09T05:09:54.462Z,3.30
2022-12-09T05:12:23.137Z,3.30
2022-12-09T05:14:51.800Z,3.30
2022-12-09T05:17:21.903Z,3.30
2022-12-09T05:19:50.806Z,3.30
2022-12-09T05:22:20.649Z,3.30
2022-12-09T05:24:49.750Z,3.30
2022-12-09T05:27:19.098Z,3.30
2022-12-09T05:29:48.804Z,3.30
2022-12-09T05:32:37.880Z,3.30
2022-12-09T05:35:08.050Z,3.30
2022-12-09T05:37:43.712Z,3.30
2022-12-09T05:40:14.127Z,3.30
2022-12-09T05:42:50.276Z,3.30
2022-12-09T05:45:22.401Z,3.30
2022-12-09T05:47:56.389Z,3.30
2022-12-09T05:50:35.395Z,3.30
2022-12-09T05:53:23.664Z,3.30
2022-12-09T05:58:50.993Z,3.30
2022-12-09T06:04:40.211Z,3.30
2022-12-09T06:07:21.542Z,3.30
2022-12-09T06:10:08.718Z,3.30
2022-12-09T06:13:18.305Z,3.30
2022-12-09T06:16:02.898Z,3.20
2022-12-09T06:19:21.791Z,3.30
2022-12-09T06:22:23.047Z,3.20
2022-12-09T06:25:20.435Z,3.20
2022-12-09T06:28:23.956Z,3.20
2022-12-09T06:37:55.958Z,3.20
2022-12-09T06:57:51.636Z,3.30
2022-12-09T07:04:26.890Z,3.30
2022-12-09T07:07:36.911Z,3.30
2022-12-09T07:10:57.076Z,3.30
2022-12-09T07:17:31.917Z,3.30
2022-12-09T07:20:29.901Z,3.30
2022-12-09T07:23:43.521Z,3.30
2022-12-09T07:27:18.636Z,3.40
2022-12-09T07:30:13.601Z,3.40
2022-12-09T07:33:06.337Z,3.40
2022-12-09T07:36:28.775Z,3.40
2022-12-09T07:43:08.238Z,3.40
2022-12-09T07:46:50.687Z,3.40
2022-12-09T07:52:57.868Z,3.40
2022-12-09T07:56:14.924Z,3.50
2022-12-09T08:06:04.728Z,3.50
2022-12-09T08:09:15.250Z,3.50
2022-12-09T08:11:48.595Z,3.50
2022-12-09T08:14:17.507Z,3.50
2022-12-09T08:16:46.242Z,3.50
2022-12-09T08:19:16.402Z,3.50
2022-12-09T08:21:48.413Z,3.60
2022-12-09T08:24:20.361Z,3.60
2022-12-09T08:26:51.557Z,3.60
2022-12-09T08:29:20.808Z,3.60
2022-12-09T08:31:49.770Z,3.60
2022-12-09T08:34:19.988Z,3.70
2022-12-09T08:36:49.038Z,3.70
2022-12-09T08:39:17.545Z,3.70
2022-12-09T08:41:46.160Z,3.70
2022-12-09T08:44:17.189Z,3.70
2022-12-09T08:46:51.197Z,3.70
2022-12-09T08:49:24.309Z,3.70
2022-12-09T08:51:54.611Z,3.60
2022-12-09T08:54:24.266Z,3.60
2022-12-09T08:56:55.203Z,3.60
2022-12-09T08:59:25.267Z,3.60
2022-12-09T09:01:54.483Z,3.60
2022-12-09T09:04:25.246Z,3.60
2022-12-09T09:06:54.752Z,3.60
2022-12-09T09:09:23.756Z,3.60
2022-12-09T09:11:53.292Z,3.50
2022-12-09T09:14:22.041Z,3.50
2022-12-09T09:16:50.821Z,3.60
2022-12-09T09:19:23.534Z,3.60
2022-12-09T09:21:54.670Z,3.60
2022-12-09T09:24:26.140Z,3.60
2022-12-09T09:26:56.776Z,3.60
2022-12-09T09:29:25.567Z,3.60
2022-12-09T09:31:55.585Z,3.60
2022-12-09T09:34:26.140Z,3.70
2022-12-09T09:36:56.890Z,3.70
2022-12-09T09:39:25.927Z,3.70
2022-12-09T09:41:56.580Z,3.70
2022-12-09T09:44:28.903Z,3.70
2022-12-09T09:46:58.858Z,3.70
2022-12-09T09:49:37.525Z,3.70
2022-12-09T09:52:10.923Z,3.80
2022-12-09T09:54:39.531Z,3.80
2022-12-09T09:57:17.509Z,3.80
2022-12-09T10:00:00.895Z,3.80
2022-12-09T10:02:58.237Z,3.90
2022-12-09T10:05:31.784Z,3.90
2022-12-09T10:08:45.751Z,3.90
2022-12-09T10:12:09.640Z,3.90
2022-12-09T10:15:20.812Z,3.90
2022-12-09T10:18:14.603Z,3.90
2022-12-09T10:20:44.146Z,4.00
2022-12-09T10:23:15.560Z,4.00
2022-12-09T10:25:48.971Z,4.00
2022-12-09T10:28:22.416Z,4.00
2022-12-09T10:30:52.656Z,4.00
2022-12-09T10:33:28.449Z,4.00
2022-12-09T10:35:57.652Z,4.00
2022-12-09T10:38:28.873Z,4.10
2022-12-09T10:41:05.920Z,4.00
2022-12-09T10:43:37.401Z,4.00
2022-12-09T10:46:19.304Z,4.00
2022-12-09T10:48:56.290Z,4.00
2022-12-09T10:51:27.985Z,4.00
2022-12-09T10:54:00.973Z,4.00
2022-12-09T10:56:32.450Z,4.10
2022-12-09T10:59:20.519Z,4.10
2022-12-09T11:01:52.780Z,4.10
2022-12-09T11:04:26.621Z,4.00
2022-12-09T11:07:00.114Z,4.10
2022-12-09T11:09:33.692Z,4.00
2022-12-09T11:12:06.681Z,4.00
2022-12-09T11:14:37.476Z,4.00
2022-12-09T11:17:25.179Z,4.00
2022-12-09T11:19:57.630Z,4.00
2022-12-09T11:22:39.499Z,4.00
2022-12-09T11:25:28.207Z,4.00
2022-12-09T11:27:59.964Z,4.00
2022-12-09T11:30:31.888Z,4.00
2022-12-09T11:33:19.572Z,4.00
2022-12-09T11:36:03.607Z,4.00
2022-12-09T11:38:37.079Z,4.00
2022-12-09T11:41:35.491Z,4.00
2022-12-09T11:44:14.049Z,4.00
2022-12-09T11:46:43.009Z,4.00
2022-12-09T11:49:17.444Z,3.90
2022-12-09T11:52:00.895Z,3.90
2022-12-09T11:54:33.906Z,3.90
2022-12-09T11:57:06.541Z,3.90
2022-12-09T11:59:40.276Z,3.90
2022-12-09T12:02:19.562Z,3.90
2022-12-09T12:04:55.511Z,3.80
2022-12-09T12:07:36.265Z,3.90
2022-12-09T12:10:06.883Z,3.90
2022-12-09T12:12:44.360Z,3.90
2022-12-09T12:15:18.083Z,3.90
2022-12-09T12:17:51.513Z,3.80
2022-12-09T12:20:20.100Z,3.80
2022-12-09T12:23:11.092Z,3.80
2022-12-09T12:25:51.661Z,3.80
2022-12-09T12:28:38.485Z,3.80
2022-12-09T12:31:17.891Z,3.70
2022-12-09T12:34:23.393Z,3.70
2022-12-09T12:36:57.843Z,3.70
2022-12-09T12:39:36.097Z,3.70
2022-12-09T12:42:15.971Z,3.70
2022-12-09T12:45:10.061Z,3.70
2022-12-09T12:47:44.567Z,3.70
2022-12-09T12:50:43.697Z,3.70
2022-12-09T12:53:23.321Z,3.70
2022-12-09T12:55:59.572Z,3.70
2022-12-09T12:58:44.539Z,3.70
2022-12-09T13:01:21.713Z,3.70
2022-12-09T13:04:00.207Z,3.70
2022-12-09T13:06:42.579Z,3.70
2022-12-09T13:09:15.298Z,3.80
2022-12-09T13:11:58.622Z,3.80
2022-12-09T13:14:32.561Z,3.70
2022-12-09T13:17:05.947Z,3.70
2022-12-09T13:19:41.069Z,3.80
2022-12-09T13:22:17.399Z,3.80
2022-12-09T13:25:00.007Z,3.80
2022-12-09T13:27:35.881Z,3.70
2022-12-09T13:30:07.882Z,3.80
2022-12-09T13:33:10.559Z,3.80
2022-12-09T13:35:43.892Z,3.70
2022-12-09T13:38:27.530Z,3.70
2022-12-09T13:40:56.041Z,3.70
2022-12-09T13:43:27.116Z,3.70
2022-12-09T13:45:58.251Z,3.70
2022-12-09T13:48:50.081Z,3.70
2022-12-09T13:51:19.360Z,3.70
2022-12-09T13:54:00.842Z,3.60
2022-12-09T13:56:31.792Z,3.60
2022-12-09T13:59:38.223Z,3.60
2022-12-09T14:02:26.032Z,3.60
2022-12-09T14:05:06.763Z,3.60
2022-12-09T14:07:39.671Z,3.60
2022-12-09T14:10:30.686Z,3.60
2022-12-09T14:13:23.963Z,3.50
2022-12-09T14:16:14.279Z,3.50
2022-12-09T14:18:43.433Z,3.50
2022-12-09T14:21:33.530Z,3.50
2022-12-09T14:24:36.807Z,3.50
2022-12-09T14:27:17.153Z,3.50
2022-12-09T14:29:48.110Z,3.50
2022-12-09T14:32:37.604Z,3.40
2022-12-09T14:35:21.141Z,3.40
2022-12-09T14:38:10.229Z,3.40
2022-12-09T14:40:54.198Z,3.40
2022-12-09T14:43:50.145Z,3.40
2022-12-09T14:46:28.372Z,3.30
2022-12-09T14:48:59.859Z,3.30
2022-12-09T14:51:35.864Z,3.30
2022-12-09T14:54:09.439Z,3.30
2022-12-09T14:56:38.062Z,3.30
2022-12-09T14:59:11.013Z,3.30
2022-12-09T15:01:50.426Z,3.20
2022-12-09T15:04:43.525Z,3.20
2022-12-09T15:07:15.784Z,3.20
2022-12-09T15:09:55.433Z,3.30
2022-12-09T15:12:27.471Z,3.30
2022-12-09T15:14:59.915Z,3.30
2022-12-09T15:17:31.752Z,3.30
2022-12-09T15:20:01.539Z,3.30
2022-12-09T15:22:32.720Z,3.20
2022-12-09T15:25:04.568Z,3.30
2022-12-09T15:27:33.072Z,3.30
2022-12-09T15:30:01.612Z,3.30
2022-12-09T15:32:31.310Z,3.30
2022-12-09T15:35:18.023Z,3.30
2022-12-09T15:37:47.455Z,3.30
2022-12-09T15:40:22.247Z,3.30
2022-12-09T15:42:53.990Z,3.30
2022-12-09T15:45:24.896Z,3.30
2022-12-09T15:47:57.994Z,3.30
2022-12-09T15:50:29.984Z,3.30
2022-12-09T15:53:03.576Z,3.30
2022-12-09T15:55:37.901Z,3.30
2022-12-09T15:58:12.324Z,3.30
2022-12-09T16:00:43.739Z,3.30
2022-12-09T16:03:12.371Z,3.30
2022-12-09T16:05:42.205Z,3.30
2022-12-09T16:08:11.578Z,3.40
2022-12-09T16:10:49.194Z,3.30
2022-12-09T16:13:19.451Z,3.40
2022-12-09T16:15:52.560Z,3.40
2022-12-09T16:18:24.242Z,3.40
2022-12-09T16:21:18.414Z,3.30
2022-12-09T16:23:49.654Z,3.40
2022-12-09T16:26:24.945Z,3.40
2022-12-09T16:29:01.538Z,3.30
2022-12-09T16:31:30.809Z,3.40
2022-12-09T16:33:59.724Z,3.40
2022-12-09T16:36:30.474Z,3.40
2022-12-09T16:39:34.565Z,3.30
2022-12-09T16:42:04.546Z,3.40
2022-12-09T16:44:36.129Z,3.40
2022-12-09T16:47:11.853Z,3.40
2022-12-09T16:49:41.882Z,3.40
2022-12-09T16:52:13.861Z,3.40
2022-12-09T16:54:45.020Z,3.40
2022-12-09T16:57:16.833Z,3.40
2022-12-09T16:59:46.003Z,3.40
2022-12-09T17:02:20.822Z,3.40
2022-12-09T17:04:50.468Z,3.40
2022-12-09T17:07:19.147Z,3.40
2022-12-09T17:09:47.741Z,3.40
2022-12-09T17:12:17.553Z,3.40
2022-12-09T17:14:46.184Z,3.40
2022-12-09T17:17:14.673Z,3.40
2022-12-09T17:19:44.279Z,3.50
2022-12-09T17:22:13.275Z,3.50
2022-12-09T17:24:41.843Z,3.50
2022-12-09T17:27:10.302Z,3.50
2022-12-09T17:29:40.126Z,3.50
2022-12-09T17:32:08.636Z,3.50
2022-12-09T17:34:37.193Z,3.50
2022-12-09T17:37:05.683Z,3.50
2022-12-09T17:39:34.340Z,3.50
2022-12-09T17:42:02.983Z,3.50
2022-12-09T17:44:31.447Z,3.50
2022-12-09T17:47:01.261Z,3.60
2022-12-09T17:49:29.713Z,3.60
2022-12-09T17:51:58.160Z,3.60
2022-12-09T17:54:26.572Z,3.60
2022-12-09T17:56:55.052Z,3.60
2022-12-09T17:59:23.542Z,3.60
2022-12-09T18:01:51.942Z,3.60
2022-12-09T18:04:21.671Z,3.60
2022-12-09T18:06:50.181Z,3.60
2022-12-09T18:09:20.404Z,3.60
2022-12-09T18:11:48.956Z,3.70
2022-12-09T18:14:17.652Z,3.70
2022-12-09T18:16:49.140Z,3.70
2022-12-09T18:19:20.827Z,3.70
2022-12-09T18:21:50.629Z,3.70
2022-12-09T18:24:19.381Z,3.70
2022-12-09T18:26:47.944Z,3.70
2022-12-09T18:29:16.855Z,3.70
2022-12-09T18:31:46.092Z,3.80
2022-12-09T18:34:14.859Z,3.80
2022-12-09T18:36:43.495Z,3.80
2022-12-09T18:39:13.237Z,3.80
2022-12-09T18:41:41.686Z,3.80
2022-12-09T18:44:12.300Z,3.80
2022-12-09T18:46:42.572Z,3.90
2022-12-09T18:49:14.193Z,3.90
2022-12-09T18:51:44.097Z,3.90
2022-12-09T18:54:17.700Z,3.90
2022-12-09T18:56:46.151Z,3.90
2022-12-09T18:59:15.083Z,4.00
2022-12-09T19:01:46.121Z,3.90
2022-12-09T19:04:17.229Z,4.00
2022-12-09T19:06:47.890Z,4.00
2022-12-09T19:09:19.524Z,4.00
2022-12-09T19:11:49.918Z,4.10
2022-12-09T19:14:20.561Z,4.10
2022-12-09T19:16:49.826Z,4.10
2022-12-09T19:19:20.705Z,4.10
2022-12-09T19:21:49.859Z,4.10
2022-12-09T19:24:21.473Z,4.10
2022-12-09T19:26:51.310Z,4.10
2022-12-09T19:29:20.119Z,4.20
2022-12-09T19:31:50.299Z,4.20
2022-12-09T19:34:21.418Z,4.20
2022-12-09T19:36:51.375Z,4.20
2022-12-09T19:39:24.245Z,4.20
2022-12-09T19:41:53.133Z,4.20
2022-12-09T19:44:44.498Z,4.20
2022-12-09T19:47:11.373Z,4.20
2022-12-09T19:49:41.380Z,4.20
2022-12-09T19:52:09.771Z,4.20
2022-12-09T19:54:39.604Z,4.20
2022-12-09T19:57:08.172Z,4.30
2022-12-09T19:59:37.738Z,4.30
2022-12-09T20:02:08.069Z,4.30
2022-12-09T20:04:51.844Z,4.30
2022-12-09T20:07:20.673Z,4.30
2022-12-09T20:09:50.793Z,4.30
2022-12-09T20:12:19.303Z,4.30
2022-12-09T20:14:47.876Z,4.30
2022-12-09T20:17:17.459Z,4.30
2022-12-09T20:19:46.009Z,4.30
2022-12-09T20:22:14.395Z,4.30
2022-12-09T20:24:43.420Z,4.30
2022-12-09T20:27:13.421Z,4.30
2022-12-09T20:29:42.004Z,4.30
2022-12-09T20:32:10.769Z,4.40
2022-12-09T20:34:39.700Z,4.40
2022-12-09T20:37:08.467Z,4.40
2022-12-09T20:39:38.642Z,4.40
2022-12-09T20:42:07.098Z,4.40
2022-12-09T20:44:36.971Z,4.40
2022-12-09T20:47:05.411Z,4.50
2022-12-09T20:49:33.857Z,4.50
2022-12-09T20:52:02.329Z,4.50
2022-12-09T20:54:30.803Z,4.50
2022-12-09T20:56:59.421Z,4.50
2022-12-09T20:59:27.873Z,4.60
2022-12-09T21:01:58.297Z,4.60
2022-12-09T21:04:26.829Z,4.60
2022-12-09T21:06:55.461Z,4.60
2022-12-09T21:09:27.310Z,4.60
2022-12-09T21:11:57.019Z,4.60
2022-12-09T21:14:32.458Z,4.60
2022-12-09T21:17:03.020Z,4.70
2022-12-09T21:19:32.543Z,4.70
2022-12-09T21:22:01.064Z,4.70
2022-12-09T21:24:29.535Z,4.80
2022-12-09T21:26:58.140Z,4.80
2022-12-09T21:29:31.901Z,4.80
2022-12-09T21:32:03.053Z,4.80
2022-12-09T21:34:31.825Z,4.80
2022-12-09T21:37:00.427Z,4.90
2022-12-09T21:39:29.453Z,4.90
2022-12-09T21:41:57.993Z,4.90
2022-12-09T21:44:27.287Z,4.90
2022-12-09T21:46:55.809Z,5.00
2022-12-09T21:49:25.635Z,5.00
2022-12-09T21:51:54.101Z,5.00
2022-12-09T21:54:22.734Z,5.00
2022-12-09T21:56:51.313Z,5.00
2022-12-09T21:59:19.897Z,5.10
2022-12-09T22:01:48.351Z,5.10
2022-12-09T22:04:18.340Z,5.10
2022-12-09T22:06:50.619Z,5.10
2022-12-09T22:09:21.248Z,5.20
2022-12-09T22:11:50.155Z,5.20
2022-12-09T22:14:38.550Z,5.20
2022-12-09T22:17:07.113Z,5.20
2022-12-09T22:19:35.661Z,5.30
2022-12-09T22:22:08.997Z,5.30
2022-12-09T22:24:37.771Z,5.30
2022-12-09T22:27:06.221Z,5.30
2022-12-09T22:29:34.700Z,5.30
2022-12-09T22:32:03.321Z,5.40
2022-12-09T22:34:31.741Z,5.40
2022-12-09T22:37:10.636Z,5.40
2022-12-09T22:39:50.015Z,5.40
2022-12-09T22:42:18.482Z,5.50
2022-12-09T22:44:46.940Z,5.50
2022-12-09T22:47:15.561Z,5.50
2022-12-09T22:49:44.181Z,5.50
2022-12-09T22:52:12.653Z,5.50
2022-12-09T22:54:41.227Z,5.50
2022-12-09T22:57:11.064Z,5.60
2022-12-09T22:59:42.911Z,5.60
2022-12-09T23:02:11.788Z,5.60
2022-12-09T23:04:40.267Z,5.60
2022-12-09T23:07:09.391Z,5.60
2022-12-09T23:09:37.835Z,5.60
2022-12-09T23:12:06.638Z,5.60
2022-12-09T23:14:36.510Z,5.60
2022-12-09T23:17:04.891Z,5.70
2022-12-09T23:19:33.423Z,5.70
2022-12-09T23:22:02.022Z,5.70
2022-12-09T23:24:31.508Z,5.70
2022-12-09T23:27:00.001Z,5.70
2022-12-09T23:29:28.493Z,5.70
2022-12-09T23:31:58.261Z,5.70
2022-12-09T23:34:26.742Z,5.70
2022-12-09T23:36:55.753Z,5.70
2022-12-09T23:39:24.165Z,5.70
2022-12-09T23:41:52.551Z,5.70
2022-12-09T23:44:21.012Z,5.70
2022-12-09T23:46:49.633Z,5.70
2022-12-09T23:49:19.561Z,5.70
2022-12-09T23:51:48.143Z,5.70
2022-12-09T23:54:18.237Z,5.70
2022-12-09T23:56:50.126Z,5.70
2022-12-09T23:59:21.576Z,5.70
